Latest Weather Observations for Middle Percy Island

IDQ60801

Issued at 6:06 pm EST Monday 26 January 2015 (issued every 30 minutes, with the page automatically refreshed every 10 minutes)

About weather observations | Map of weather stations | Latest weather observations for QLD | Other Formats
Station Details ID: 200001 Name: MIDDLE PERCY ISLAND Lat: -21.66 Lon: 150.27 Height: 208.7 m
Data from the previous 72 hours. | See also: Recent months at Middle Percy Island
Date/Time
EST
Temp
°C
App
Temp
°C
Dew
Point
Rel
Hum
%
Delta-T
°C
Wind Press
QNH
hPa
Press
MSL
hPa
Rain
since 9 am
mm
Dir
 
Spd
km/h
Gust
km/h
Spd
kts
Gust
kts
26/06:00pm 27.9 30.5 23.9 79 2.8 N 17 22 9 12 1004.4 1003.1 0.0
26/05:30pm 28.9 32.2 23.8 74 3.6 N 13 20 7 11 1004.4 1003.1 0.0
26/05:00pm 29.1 32.0 23.1 70 4.1 N 13 19 7 10 1004.3 1003.0 0.0
26/04:30pm 29.4 32.3 23.1 69 4.4 N 13 17 7 9 1004.4 1003.1 0.0
26/04:00pm 29.2 32.1 23.2 70 4.2 N 13 17 7 9 1004.3 1003.0 0.0
26/03:30pm 29.8 33.0 23.7 70 4.3 N 13 19 7 10 1004.5 1003.2 0.0
26/03:00pm 29.6 33.8 23.5 69 4.2 NNE 7 15 4 8 1004.8 1003.5 0.0
26/02:30pm 30.1 34.5 23.5 67 4.6 ESE 6 9 3 5 1005.5 1004.1 0.0
26/02:00pm 30.0 34.3 24.2 71 4.1 NE 9 15 5 8 1005.2 1003.9 0.0
26/01:30pm 30.6 35.1 25.2 73 3.8 NE 11 15 6 8 1005.2 1003.9 0.0
26/01:00pm 31.0 36.8 26.0 74 3.6 SE 7 13 4 7 1005.4 1004.0 0.0
26/12:30pm 31.0 37.1 26.5 77 3.3 ESE 7 15 4 8 1005.7 1004.3 0.0
26/12:00pm 29.4 33.5 25.2 78 3.0 S 13 17 7 9 1006.1 1004.7 0.0
26/11:30am 29.1 33.5 24.4 76 3.3 S 9 13 5 7 1006.1 1004.7 0.0
26/11:00am 29.0 33.6 25.4 81 2.6 S 11 17 6 9 1006.4 1005.1 0.0
26/10:30am 29.1 32.5 24.7 77 3.1 S 15 19 8 10 1006.8 1005.5 0.0
26/10:00am 29.7 34.0 24.3 73 3.8 S 9 13 5 7 1007.0 1005.7 0.0
26/09:30am 30.0 35.5 24.6 73 3.8 NNE 4 7 2 4 1006.9 1005.6 0.0
26/09:00am 29.0 33.6 24.8 78 3.0 SSW 9 13 5 7 1006.9 1005.6 0.0
26/08:30am 28.5 33.6 24.9 81 2.5 SW 7 13 4 7 1007.0 1005.7 0.0
26/08:00am 27.4 32.3 24.7 85 1.9 WNW 7 11 4 6 1007.0 1005.7 0.0
26/07:30am 27.4 32.3 24.7 85 1.9 NW 7 13 4 7 1007.2 1005.9 0.0
26/07:00am 26.7 31.1 24.4 87 1.6 NW 9 13 5 7 1007.3 1006.0 0.0
26/06:30am 26.3 30.1 24.0 87 1.6 NNW 11 15 6 8 1007.0 1005.7 0.0
26/06:00am 26.0 29.2 23.7 87 1.6 NNW 13 17 7 9 1006.6 1005.3 0.0
26/05:30am 25.9 28.8 23.9 89 1.4 N 15 19 8 10 1006.2 1004.8 0.0
26/05:00am 26.0 28.5 22.5 81 2.4 NNW 13 15 7 8 1006.0 1004.6 0.0
26/04:30am 26.0 29.2 23.1 84 2.0 NW 11 15 6 8 1005.9 1004.5 0.0
26/04:00am 26.1 28.8 23.4 85 1.9 NNW 15 20 8 11 1005.9 1004.5 0.0
26/03:30am 26.2 28.4 23.9 87 1.6 NNW 19 26 10 14 1005.6 1004.2 0.0
26/03:00am 26.5 28.7 24.0 86 1.7 NNW 19 26 10 14 1005.8 1004.4 0.0
26/02:30am 26.4 28.5 23.1 82 2.3 NNW 17 20 9 11 1005.7 1004.3 0.0
26/02:00am 26.4 28.0 22.9 81 2.4 NNW 19 20 10 11 1005.8 1004.4 0.0
26/01:30am 26.4 28.2 23.3 83 2.1 NNW 19 22 10 12 1006.2 1004.8 0.0
26/01:00am 26.3 29.0 23.4 84 2.0 WNW 15 22 8 12 1007.0 1005.7 0.0
26/12:30am 26.5 29.3 24.9 91 1.1 NW 19 26 10 14 1007.4 1006.1 0.0
26/12:00am 26.7 29.6 24.4 87 1.6 NW 17 26 9 14 1007.4 1006.1 0.0
 
Date/Time
EST
Temp
°C
App
Temp
°C
Dew
Point
Rel
Hum
%
Delta-T
°C
Wind Press
QNH
hPa
Press
MSL
hPa
Rain
since 9 am
mm
Dir
 
Spd
km/h
Gust
km/h
Spd
kts
Gust
kts
25/11:30pm 27.3 28.6 22.3 74 3.4 NNW 19 26 10 14 1007.3 1006.0 0.0
25/11:00pm 27.3 29.1 23.3 79 2.8 NW 19 24 10 13 1008.1 1006.8 0.0
25/10:30pm 27.3 29.2 23.5 80 2.6 NW 19 24 10 13 1007.9 1006.6 0.0
25/10:00pm 27.4 29.2 23.2 78 2.9 NW 19 24 10 13 1007.8 1006.5 0.0
25/09:30pm 26.8 29.3 24.5 87 1.6 NNW 19 26 10 14 1007.7 1006.4 0.0
25/09:00pm 26.7 29.7 25.5 93 0.8 NNW 20 26 11 14 1007.2 1005.9 0.0
25/08:30pm 27.1 30.0 25.9 93 0.9 NNW 22 32 12 17 1006.6 1005.3 0.0
25/08:00pm 27.2 28.8 25.2 89 1.4 NNW 26 35 14 19 1006.4 1005.1 0.0
25/07:30pm 27.4 29.8 25.8 91 1.1 NNW 24 33 13 18 1007.0 1005.7 0.0
25/07:00pm 27.5 29.6 25.3 88 1.6 NNW 24 33 13 18 1006.9 1005.6 0.0
25/06:30pm 27.4 30.1 25.6 90 1.3 NNW 22 32 12 17 1006.5 1005.2 0.0
25/06:00pm 27.6 30.6 25.2 87 1.7 NNW 19 24 10 13 1006.0 1004.6 0.0
25/05:30pm 27.9 30.6 24.7 83 2.2 NNW 19 24 10 13 1005.5 1004.1 0.0
25/05:00pm 27.8 30.1 25.0 85 2.0 N 22 30 12 16 1005.1 1003.8 0.0
25/04:30pm 27.9 30.5 25.5 87 1.7 N 22 32 12 17 1005.0 1003.7 0.0
25/04:00pm 28.8 32.7 25.4 82 2.4 N 15 22 8 12 1005.4 1004.0 0.0
25/03:30pm 31.5 37.1 25.4 70 4.3 ENE 6 9 3 5 1005.5 1004.1 0.0
25/03:00pm 30.6 35.1 25.2 73 3.8 N 11 15 6 8 1005.9 1004.5 0.0
25/02:30pm 29.2 33.0 24.7 77 3.2 N 13 19 7 10 1006.6 1005.3 0.0
25/02:00pm 30.9 35.5 24.8 70 4.3 WNW 9 15 5 8 1006.9 1005.6 0.0
25/01:30pm 30.9 35.1 23.5 64 5.1 WNW 7 11 4 6 1007.2 1005.9 0.0
25/01:00pm 31.2 35.4 24.1 66 5.0 NW 9 15 5 8 1007.1 1005.8 0.0
25/12:30pm 30.6 35.9 25.0 72 4.0 NW 6 9 3 5 1007.3 1006.0 0.0
25/12:00pm 29.4 34.5 24.9 77 3.2 WNW 7 11 4 6 1007.5 1006.2 0.0
25/11:30am 29.4 34.7 25.2 78 3.0 NW 7 13 4 7 1008.0 1006.7 0.0
25/11:00am 28.9 33.0 25.7 83 2.3 NW 15 19 8 10 1008.5 1007.2 0.0
25/10:30am 28.5 32.6 25.7 85 2.0 NW 15 20 8 11 1008.8 1007.5 0.0
25/10:00am 28.6 32.1 25.4 83 2.3 NW 17 26 9 14 1009.1 1007.8 0.0
25/09:30am 29.2 32.6 25.8 82 2.4 NW 19 28 10 15 1009.1 1007.8 0.0
25/09:00am 28.0 31.5 25.4 86 1.8 NW 17 26 9 14 1009.1 1007.8 0.0
25/08:30am 27.5 30.1 24.9 86 1.8 NNW 20 30 11 16 1008.9 1007.6 0.0
25/08:00am 27.4 30.8 25.2 88 1.6 NW 17 24 9 13 1009.1 1007.8 0.0
25/07:30am 27.5 30.8 25.1 87 1.7 NW 17 26 9 14 1009.1 1007.8 0.0
25/07:00am 27.1 30.3 24.9 88 1.5 NW 17 26 9 14 1008.9 1007.6 0.0
25/06:30am 27.1 30.1 25.3 90 1.3 NNW 19 30 10 16 1008.5 1007.2 0.0
25/06:00am 26.6 29.5 25.4 93 0.8 NNW 20 30 11 16 1008.0 1006.7 0.0
25/05:30am 26.5 29.9 25.8 96 0.5 NNW 19 32 10 17 1007.6 1006.3 0.0
25/05:00am 26.4 29.3 25.9 97 0.4 NNW 22 35 12 19 1007.4 1006.1 0.0
25/04:30am 26.6 30.1 26.3 98 0.2 NNW 20 30 11 16 1007.2 1005.9 0.0
25/04:00am 26.6 28.8 26.1 97 0.4 NNW 26 39 14 21 1006.8 1005.5 0.0
25/03:30am 26.6 29.3 26.3 98 0.2 NNW 24 33 13 18 1006.6 1005.3 0.0
25/03:00am 26.6 29.7 26.3 98 0.2 NNW 22 32 12 17 1006.4 1005.1 0.0
25/02:30am 26.7 30.3 26.4 98 0.2 NNW 20 32 11 17 1006.5 1005.2 0.0
25/02:00am 26.7 29.5 26.4 98 0.2 NNW 24 35 13 19 1006.9 1005.6 0.0
25/01:30am 26.9 30.2 26.6 98 0.2 NNW 22 37 12 20 1007.3 1006.0 0.0
25/01:00am 26.8 29.3 26.5 98 0.2 NNW 26 41 14 22 1007.5 1006.2 0.0
25/12:30am 26.8 28.9 26.5 98 0.2 NNW 28 39 15 21 1007.5 1006.2 0.0
25/12:00am 26.8 29.2 26.3 97 0.4 NNW 26 44 14 24 1007.6 1006.3 0.0
 
Date/Time
EST
Temp
°C
App
Temp
°C
Dew
Point
Rel
Hum
%
Delta-T
°C
Wind Press
QNH
hPa
Press
MSL
hPa
Rain
since 9 am
mm
Dir
 
Spd
km/h
Gust
km/h
Spd
kts
Gust
kts
24/11:30pm 26.9 30.1 26.4 97 0.4 NNW 22 33 12 18 1007.9 1006.6 0.0
24/11:00pm 26.9 29.7 26.4 97 0.4 NNW 24 33 13 18 1008.3 1007.0 0.0
24/10:30pm 27.0 29.6 26.7 98 0.2 NNW 26 39 14 21 1008.1 1006.8 0.0
24/10:00pm 27.0 29.5 26.5 97 0.4 NNW 26 35 14 19 1007.6 1006.3 0.0
24/09:30pm 27.0 29.4 26.3 96 0.5 NNW 26 35 14 19 1007.6 1006.3 0.0
24/09:00pm 27.0 29.4 26.3 96 0.5 NNW 26 37 14 20 1007.6 1006.3 0.0
24/08:30pm 27.1 29.7 26.6 97 0.4 NNW 26 37 14 20 1007.6 1006.3 0.0
24/08:00pm 27.2 29.3 26.5 96 0.5 NNW 28 43 15 23 1007.4 1006.1 0.0
24/07:30pm 27.1 29.1 26.4 96 0.5 N 28 41 15 22 1007.0 1005.7 0.0
24/07:00pm 27.1 28.4 25.9 93 0.9 N 30 39 16 21 1006.5 1005.2 0.0
24/06:30pm 27.2 29.0 26.0 93 0.9 N 28 39 15 21 1006.6 1005.3 0.0
24/06:00pm 27.2 29.0 26.0 93 0.9 N 28 39 15 21 1006.2 1004.8 0.0
24/05:30pm 27.4 29.7 26.2 93 0.9 N 26 39 14 21 1006.0 1004.6 0.0
24/05:00pm 27.6 29.9 26.2 92 1.0 N 26 37 14 20 1005.9 1004.5 0.0
24/04:30pm 27.4 29.8 25.8 91 1.1 N 24 33 13 18 1005.7 1004.3 0.0
24/04:00pm 27.7 30.4 25.7 89 1.4 N 22 30 12 16 1005.6 1004.2 0.0
24/03:30pm 29.1 32.3 25.5 81 2.6 N 19 28 10 15 1006.1 1004.7 0.0
24/03:00pm 29.6 32.7 25.4 78 3.0 N 19 26 10 14 1006.0 1004.6 0.0
24/02:30pm 30.5 34.5 25.6 75 3.5 NNW 15 24 8 13 1006.4 1005.1 0.0
24/02:00pm 29.9 32.2 24.1 71 4.1 NNW 19 30 10 16 1006.4 1005.1 0.0
24/01:30pm 29.9 33.5 25.0 75 3.5 NNW 15 26 8 14 1006.9 1005.6 0.0
24/01:00pm 30.2 33.4 25.0 73 3.7 NNW 17 22 9 12 1006.9 1005.6 0.0
24/12:30pm 29.4 32.4 25.2 78 3.0 NNW 19 30 10 16 1007.1 1005.8 0.0
24/12:00pm 29.3 32.7 25.3 79 2.8 NNW 17 28 9 15 1007.2 1005.9 0.0
24/11:30am 29.1 32.0 25.1 79 2.8 NNW 19 26 10 14 1007.5 1006.2 0.0
24/11:00am 29.4 32.5 25.4 79 2.8 NW 19 26 10 14 1007.8 1006.5 0.0
24/10:30am 29.1 32.6 25.5 81 2.6 NW 17 24 9 13 1008.1 1006.8 0.0
24/10:00am 29.2 33.1 25.4 80 2.7 NW 15 24 8 13 1008.1 1006.8 0.0
24/09:30am 28.5 31.3 24.9 81 2.5 NW 19 24 10 13 1008.2 1006.9 0.0
24/09:00am 28.2 30.9 24.8 82 2.4 NW 19 26 10 14 1008.0 1006.7 0.2
24/08:30am 27.9 30.1 24.9 84 2.1 NNW 22 32 12 17 1007.9 1006.6 0.2
24/08:00am 27.2 29.7 24.7 86 1.8 NNW 20 32 11 17 1007.6 1006.3 0.2
24/07:30am 27.0 29.9 24.5 86 1.7 NNW 17 24 9 13 1007.4 1006.1 0.2
24/07:00am 26.7 29.0 24.4 87 1.6 NNW 20 30 11 16 1007.3 1006.0 0.2
24/06:30am 26.2 29.2 24.6 91 1.1 NNW 17 26 9 14 1007.0 1005.7 0.2
24/06:00am 25.8 28.7 24.4 92 1.0 NNW 17 24 9 13 1006.8 1005.5 0.2
24/05:30am 25.7 28.2 24.5 93 0.8 NNW 19 26 10 14 1006.5 1005.2 0.2
24/05:00am 25.7 28.1 24.3 92 1.0 NNW 19 30 10 16 1006.2 1004.8 0.2
24/04:30am 25.6 27.6 24.0 91 1.1 NNW 20 28 11 15 1006.0 1004.6 0.2
24/04:00am 25.6 27.8 24.2 92 1.0 NNW 20 30 11 16 1006.0 1004.6 0.2
24/03:30am 25.6 28.0 24.2 92 1.0 NNW 19 30 10 16 1005.8 1004.4 0.2
24/03:00am 25.5 27.7 23.9 91 1.1 NNW 19 26 10 14 1005.7 1004.3 0.2
24/02:30am 25.5 28.3 24.3 93 0.8 NNW 17 26 9 14 1005.8 1004.4 0.2
24/02:00am 25.4 27.6 24.0 92 1.0 NNW 19 28 10 15 1005.5 1004.1 0.2
24/01:30am 25.4 27.9 24.4 94 0.7 NNW 19 26 10 14 1005.6 1004.2 0.2
24/01:00am 25.3 27.6 24.1 93 0.8 NNW 19 26 10 14 1005.9 1004.5 0.2
24/12:30am 25.3 27.6 24.1 93 0.8 NNW 19 26 10 14 1006.1 1004.7 0.2
24/12:00am 25.4 27.3 23.8 91 1.1 NNW 20 26 11 14 1006.4 1005.1 0.2
 
Date/Time
EST
Temp
°C
App
Temp
°C
Dew
Point
Rel
Hum
%
Delta-T
°C
Wind Press
QNH
hPa
Press
MSL
hPa
Rain
since 9 am
mm
Dir
 
Spd
km/h
Gust
km/h
Spd
kts
Gust
kts
23/11:30pm 25.4 27.2 23.5 89 1.3 NNW 20 26 11 14 1006.6 1005.3 0.2
23/11:00pm 25.5 27.2 23.4 88 1.4 NNW 20 26 11 14 1006.9 1005.6 0.2
23/10:30pm 25.5 27.3 23.2 87 1.6 NNW 19 28 10 15 1007.0 1005.7 0.2
23/10:00pm 25.6 27.2 23.3 87 1.6 NNW 20 28 11 15 1006.9 1005.6 0.2
23/09:30pm 25.6 27.2 23.3 87 1.6 NNW 20 28 11 15 1006.6 1005.3 0.2
23/09:00pm 25.5 27.2 23.0 86 1.7 NNW 19 26 10 14 1006.4 1005.1 0.2
23/08:30pm 25.4 26.8 22.9 86 1.7 NNW 20 26 11 14 1006.3 1005.0 0.2
23/08:00pm 25.4 27.1 23.1 87 1.6 NNW 19 26 10 14 1006.2 1004.8 0.2
23/07:30pm 25.2 27.6 22.9 87 1.6 N 15 22 8 12 1006.0 1004.6 0.2
23/07:00pm 25.3 27.6 22.8 86 1.7 N 15 19 8 10 1005.5 1004.1 0.2
23/06:30pm 25.5 28.3 23.0 86 1.7 N 13 17 7 9 1005.1 1003.8 0.2

Other Formats:

Comma delimited format used in spreadsheet applications
http://www.bom.gov.au/fwo/IDQ60801/IDQ60801.94372.axf

JavaScript Object Notation format (JSON) in row-major order
http://www.bom.gov.au/fwo/IDQ60801/IDQ60801.94372.json